Bookmark and Share
Track history (hours):
 

Herbert J Plaisance

More information available from US FCC via Universal Licensing System and Coast Guard Vessel Documentation Center.

Last reported at 2014-Apr-05 08:14 UTC. Time now 2014-Apr-24 11:29 UTC.
Position N 30°04' W 090°52'.
Warning: this ship's position is 19 days out of date.

Length 20 m; draft 3 m.

Type: Towing. MMSI: 367386576.

NotesDate/timePositionNaut miles runAvg speedWind from/ knotsBaromVisibWave heightAir tempDewpointWater temp
2014-Apr-05 08:14N 30°04' W 090°52'5 3.1
2014-Apr-05 06:29N 30°01' W 090°46'4 4.6
2014-Apr-05 05:33N 30°02' W 090°42'4 4.2
2014-Apr-05 04:33N 30°02' W 090°37'4 4.5
2014-Apr-05 03:33N 30°03' W 090°32'4 3.4
2014-Apr-05 02:24N 30°00' W 090°28'4 4.7
2014-Apr-05 01:34N 29°59' W 090°24'38 1.0
2014-Apr-03 13:33N 29°34' W 090°57'6 6.3
2014-Apr-03 12:30N 29°37' W 091°03'6 5.9
2014-Apr-03 11:34N 29°36' W 091°09'6 5.5
2014-Apr-03 10:33N 29°32' W 091°14'6 5.7
2014-Apr-03 09:34N 29°37' W 091°15'2 1.9
2014-Apr-03 08:34N 29°39' W 091°17'3 3.0
2014-Apr-03 07:34N 29°38' W 091°20'6 5.2
2014-Apr-03 06:27N 29°40' W 091°27'6 5.0
2014-Apr-03 05:18N 29°43' W 091°33'2 0.1
2014-Apr-02 16:29N 29°44' W 091°34'9 7.2
2014-Apr-02 15:18N 29°39' W 091°26'5 7.1
2014-Apr-02 14:33N 29°38' W 091°20'7 6.9
2014-Apr-02 13:33N 29°42' W 091°13'0 0.1
2014-Apr-02 12:33N 29°42' W 091°13'0 0.0
2014-Apr-02 11:33N 29°42' W 091°13'0 0.0
2014-Apr-02 10:33N 29°42' W 091°13'0 0.0
2014-Apr-02 09:33N 29°42' W 091°13'5 5.4
2014-Apr-02 08:33N 29°46' W 091°17'7 6.9
2014-Apr-02 07:33N 29°50' W 091°23'3 0.4
2014-Apr-01 23:29N 29°53' W 091°26'4 4.3
2014-Apr-01 22:33N 29°50' W 091°23'4 4.3
2014-Apr-01 21:33N 29°46' W 091°20'4 4.2
2014-Apr-01 20:33N 29°46' W 091°15'2 2.5
2014-Apr-01 19:33N 29°44' W 091°13'0 0.1
2014-Apr-01 18:33N 29°44' W 091°13'3 3.1
2014-Apr-01 17:33N 29°40' W 091°13'2 1.9
2014-Apr-01 16:33N 29°39' W 091°15'3 3.2
2014-Apr-01 15:33N 29°38' W 091°19'5 5.1
2014-Apr-01 14:30N 29°39' W 091°25'5 4.8
2014-Apr-01 13:25N 29°42' W 091°30'4 4.6
2014-Apr-01 12:32N 29°44' W 091°34'2 0.2
2014-Apr-01 00:14N 29°43' W 091°32'4 4.9
2014-Mar-31 23:30N 29°41' W 091°28'5 5.3
2014-Mar-31 22:33N 29°39' W 091°23'5 4.8
2014-Mar-31 21:33N 29°39' W 091°18'5 5.1
2014-Mar-31 20:33N 29°42' W 091°13'3 3.2
2014-Mar-31 19:33N 29°45' W 091°14'0 0.0
2014-Mar-31 18:33N 29°45' W 091°14'0 0.1
2014-Mar-31 17:33N 29°45' W 091°14'4 4.3
2014-Mar-31 16:33N 29°41' W 091°13'3 3.0
2014-Mar-31 15:34N 29°39' W 091°16'5 5.3
2014-Mar-31 14:34N 29°39' W 091°22'5 5.4
2014-Mar-31 13:33N 29°41' W 091°28'4 4.3
2014-Mar-31 12:32N 29°43' W 091°32'6 5.5
2014-Mar-31 11:28N 29°46' W 091°38'3 3.5
2014-Mar-31 10:32N 29°46' W 091°42'6 5.3
2014-Mar-31 09:24N 29°47' W 091°48'  

Dump ship's entire track history

sailing weather and tide predictions

Herbert J Plaisance — WDE6917 — position and weather